sensor_id;sensor_type;location;lat;lon;timestamp;temperature;humidity
9519;DHT22;4797;50.220;8.782;2023-12-20T00:00:38;5.20;99.80
9519;DHT22;4797;50.220;8.782;2023-12-20T00:03:08;5.10;99.80
9519;DHT22;4797;50.220;8.782;2023-12-20T00:05:36;5.10;99.80
9519;DHT22;4797;50.220;8.782;2023-12-20T00:08:07;5.20;99.80
9519;DHT22;4797;50.220;8.782;2023-12-20T00:10:37;5.20;99.80
9519;DHT22;4797;50.220;8.782;2023-12-20T00:13:05;5.20;99.80
9519;DHT22;4797;50.220;8.782;2023-12-20T00:15:33;5.20;99.80
9519;DHT22;4797;50.220;8.782;2023-12-20T00:18:01;5.10;99.80
9519;DHT22;4797;50.220;8.782;2023-12-20T00:20:29;5.20;99.80
9519;DHT22;4797;50.220;8.782;2023-12-20T00:22:58;5.10;99.80
9519;DHT22;4797;50.220;8.782;2023-12-20T00:25:26;5.10;99.80
9519;DHT22;4797;50.220;8.782;2023-12-20T00:27:55;5.10;99.80
9519;DHT22;4797;50.220;8.782;2023-12-20T00:30:23;5.10;99.80
9519;DHT22;4797;50.220;8.782;2023-12-20T00:32:51;5.10;99.80
9519;DHT22;4797;50.220;8.782;2023-12-20T00:35:19;5.10;99.80
9519;DHT22;4797;50.220;8.782;2023-12-20T00:37:47;5.10;99.80
9519;DHT22;4797;50.220;8.782;2023-12-20T00:40:15;5.10;99.80
9519;DHT22;4797;50.220;8.782;2023-12-20T00:42:43;5.10;99.80
9519;DHT22;4797;50.220;8.782;2023-12-20T00:45:15;5.10;99.80
9519;DHT22;4797;50.220;8.782;2023-12-20T00:47:42;5.10;99.80
9519;DHT22;4797;50.220;8.782;2023-12-20T00:50:11;5.10;99.80
9519;DHT22;4797;50.220;8.782;2023-12-20T00:52:39;5.10;99.80
9519;DHT22;4797;50.220;8.782;2023-12-20T00:55:07;5.10;99.80
9519;DHT22;4797;50.220;8.782;2023-12-20T00:57:35;5.10;99.80
9519;DHT22;4797;50.220;8.782;2023-12-20T01:00:04;5.10;99.80
9519;DHT22;4797;50.220;8.782;2023-12-20T01:02:33;5.10;99.80
9519;DHT22;4797;50.220;8.782;2023-12-20T01:05:01;5.10;99.80
9519;DHT22;4797;50.220;8.782;2023-12-20T01:07:29;5.10;99.80
9519;DHT22;4797;50.220;8.782;2023-12-20T01:09:57;5.10;99.80
9519;DHT22;4797;50.220;8.782;2023-12-20T01:12:25;5.10;99.80
9519;DHT22;4797;50.220;8.782;2023-12-20T01:14:53;5.10;99.80
9519;DHT22;4797;50.220;8.782;2023-12-20T01:17:21;5.10;99.80
9519;DHT22;4797;50.220;8.782;2023-12-20T01:19:50;5.10;99.80
9519;DHT22;4797;50.220;8.782;2023-12-20T01:22:18;5.10;99.80
9519;DHT22;4797;50.220;8.782;2023-12-20T01:24:46;5.10;99.80
9519;DHT22;4797;50.220;8.782;2023-12-20T01:27:14;5.10;99.80
9519;DHT22;4797;50.220;8.782;2023-12-20T01:29:42;5.10;99.80
9519;DHT22;4797;50.220;8.782;2023-12-20T01:32:10;5.10;99.80
9519;DHT22;4797;50.220;8.782;2023-12-20T01:34:38;5.10;99.80
9519;DHT22;4797;50.220;8.782;2023-12-20T01:37:07;5.10;99.80
9519;DHT22;4797;50.220;8.782;2023-12-20T01:39:35;5.10;99.80
9519;DHT22;4797;50.220;8.782;2023-12-20T01:42:04;5.00;99.80
9519;DHT22;4797;50.220;8.782;2023-12-20T01:44:31;5.10;99.80
9519;DHT22;4797;50.220;8.782;2023-12-20T01:47:00;5.10;99.80
9519;DHT22;4797;50.220;8.782;2023-12-20T01:49:28;5.00;99.80
9519;DHT22;4797;50.220;8.782;2023-12-20T01:51:56;5.10;99.80
9519;DHT22;4797;50.220;8.782;2023-12-20T01:54:26;5.10;99.80
9519;DHT22;4797;50.220;8.782;2023-12-20T01:56:54;5.10;99.80
9519;DHT22;4797;50.220;8.782;2023-12-20T01:59:22;5.10;99.80
9519;DHT22;4797;50.220;8.782;2023-12-20T02:01:50;5.10;99.80
9519;DHT22;4797;50.220;8.782;2023-12-20T02:04:18;5.10;99.80
9519;DHT22;4797;50.220;8.782;2023-12-20T02:06:47;5.10;99.80
9519;DHT22;4797;50.220;8.782;2023-12-20T02:09:16;5.20;99.80
9519;DHT22;4797;50.220;8.782;2023-12-20T02:11:45;5.10;99.80
9519;DHT22;4797;50.220;8.782;2023-12-20T02:14:13;5.10;99.80
9519;DHT22;4797;50.220;8.782;2023-12-20T02:16:41;5.10;99.80
9519;DHT22;4797;50.220;8.782;2023-12-20T02:19:13;5.10;99.80
9519;DHT22;4797;50.220;8.782;2023-12-20T02:21:43;5.10;99.80
9519;DHT22;4797;50.220;8.782;2023-12-20T02:24:11;5.10;99.80
9519;DHT22;4797;50.220;8.782;2023-12-20T02:26:39;5.10;99.80
9519;DHT22;4797;50.220;8.782;2023-12-20T02:29:12;5.00;99.80
9519;DHT22;4797;50.220;8.782;2023-12-20T02:31:42;5.00;99.80
9519;DHT22;4797;50.220;8.782;2023-12-20T02:34:10;5.00;99.80
9519;DHT22;4797;50.220;8.782;2023-12-20T02:36:38;5.10;99.80
9519;DHT22;4797;50.220;8.782;2023-12-20T02:39:10;5.10;99.80
9519;DHT22;4797;50.220;8.782;2023-12-20T02:41:38;5.00;99.80
9519;DHT22;4797;50.220;8.782;2023-12-20T02:44:07;5.00;99.80
9519;DHT22;4797;50.220;8.782;2023-12-20T02:46:35;5.00;99.80
9519;DHT22;4797;50.220;8.782;2023-12-20T02:49:04;5.00;99.80
9519;DHT22;4797;50.220;8.782;2023-12-20T02:51:32;5.00;99.80
9519;DHT22;4797;50.220;8.782;2023-12-20T02:54:00;5.00;99.80
9519;DHT22;4797;50.220;8.782;2023-12-20T02:56:29;5.00;99.80
9519;DHT22;4797;50.220;8.782;2023-12-20T02:58:57;5.00;99.80
9519;DHT22;4797;50.220;8.782;2023-12-20T03:01:25;5.00;99.80
9519;DHT22;4797;50.220;8.782;2023-12-20T03:03:53;5.00;99.80
9519;DHT22;4797;50.220;8.782;2023-12-20T03:06:22;5.00;99.80
9519;DHT22;4797;50.220;8.782;2023-12-20T03:08:50;5.10;99.80
9519;DHT22;4797;50.220;8.782;2023-12-20T03:11:17;5.10;99.80
9519;DHT22;4797;50.220;8.782;2023-12-20T03:13:47;5.10;99.80
9519;DHT22;4797;50.220;8.782;2023-12-20T03:16:14;5.10;99.80
9519;DHT22;4797;50.220;8.782;2023-12-20T03:18:43;5.10;99.80
9519;DHT22;4797;50.220;8.782;2023-12-20T03:21:11;5.10;99.80
9519;DHT22;4797;50.220;8.782;2023-12-20T03:23:40;5.20;99.80
9519;DHT22;4797;50.220;8.782;2023-12-20T03:26:08;5.10;99.80
9519;DHT22;4797;50.220;8.782;2023-12-20T03:28:36;5.10;99.80
9519;DHT22;4797;50.220;8.782;2023-12-20T03:31:05;5.10;99.80
9519;DHT22;4797;50.220;8.782;2023-12-20T03:33:33;5.10;99.80
9519;DHT22;4797;50.220;8.782;2023-12-20T03:36:01;5.20;99.80
9519;DHT22;4797;50.220;8.782;2023-12-20T03:38:29;5.20;99.80
9519;DHT22;4797;50.220;8.782;2023-12-20T03:40:57;5.20;99.80
9519;DHT22;4797;50.220;8.782;2023-12-20T03:43:25;5.20;99.80
9519;DHT22;4797;50.220;8.782;2023-12-20T03:45:53;5.20;99.80
9519;DHT22;4797;50.220;8.782;2023-12-20T03:48:23;5.20;99.80
9519;DHT22;4797;50.220;8.782;2023-12-20T03:50:50;5.30;99.80
9519;DHT22;4797;50.220;8.782;2023-12-20T03:53:18;5.20;99.80
9519;DHT22;4797;50.220;8.782;2023-12-20T03:55:46;5.20;99.80
9519;DHT22;4797;50.220;8.782;2023-12-20T03:58:14;5.20;99.80
9519;DHT22;4797;50.220;8.782;2023-12-20T04:00:42;5.20;99.80
9519;DHT22;4797;50.220;8.782;2023-12-20T04:03:10;5.30;99.80
9519;DHT22;4797;50.220;8.782;2023-12-20T04:05:41;5.30;99.80
9519;DHT22;4797;50.220;8.782;2023-12-20T04:08:09;5.30;99.80
9519;DHT22;4797;50.220;8.782;2023-12-20T04:10:40;5.30;99.80
9519;DHT22;4797;50.220;8.782;2023-12-20T04:13:08;5.30;99.80
9519;DHT22;4797;50.220;8.782;2023-12-20T04:15:36;5.30;99.80
9519;DHT22;4797;50.220;8.782;2023-12-20T04:18:05;5.30;99.80
9519;DHT22;4797;50.220;8.782;2023-12-20T04:20:33;5.20;99.80
9519;DHT22;4797;50.220;8.782;2023-12-20T04:23:02;5.20;99.80
9519;DHT22;4797;50.220;8.782;2023-12-20T04:25:30;5.20;99.80
9519;DHT22;4797;50.220;8.782;2023-12-20T04:27:58;5.10;99.80
9519;DHT22;4797;50.220;8.782;2023-12-20T04:30:26;5.10;99.80
9519;DHT22;4797;50.220;8.782;2023-12-20T04:32:54;5.10;99.80
9519;DHT22;4797;50.220;8.782;2023-12-20T04:35:22;5.00;99.80
9519;DHT22;4797;50.220;8.782;2023-12-20T04:37:50;5.00;99.80
9519;DHT22;4797;50.220;8.782;2023-12-20T04:40:19;5.10;99.80
9519;DHT22;4797;50.220;8.782;2023-12-20T04:42:47;5.10;99.80
9519;DHT22;4797;50.220;8.782;2023-12-20T04:45:15;5.20;99.80
9519;DHT22;4797;50.220;8.782;2023-12-20T04:47:43;5.30;99.80
9519;DHT22;4797;50.220;8.782;2023-12-20T04:50:14;5.40;99.80
9519;DHT22;4797;50.220;8.782;2023-12-20T04:52:42;5.40;99.80
9519;DHT22;4797;50.220;8.782;2023-12-20T04:55:10;5.40;99.80
9519;DHT22;4797;50.220;8.782;2023-12-20T04:57:39;5.40;99.80
9519;DHT22;4797;50.220;8.782;2023-12-20T05:00:08;5.50;99.80
9519;DHT22;4797;50.220;8.782;2023-12-20T05:02:36;5.50;99.80
9519;DHT22;4797;50.220;8.782;2023-12-20T05:05:05;5.50;99.80
9519;DHT22;4797;50.220;8.782;2023-12-20T05:07:33;5.50;99.80
9519;DHT22;4797;50.220;8.782;2023-12-20T05:10:01;5.40;99.80
9519;DHT22;4797;50.220;8.782;2023-12-20T05:12:31;5.40;99.80
9519;DHT22;4797;50.220;8.782;2023-12-20T05:15:00;5.30;99.80
9519;DHT22;4797;50.220;8.782;2023-12-20T05:17:28;5.20;99.80
9519;DHT22;4797;50.220;8.782;2023-12-20T05:19:56;5.10;99.80
9519;DHT22;4797;50.220;8.782;2023-12-20T05:22:24;5.20;99.80
9519;DHT22;4797;50.220;8.782;2023-12-20T05:24:52;5.10;99.80
9519;DHT22;4797;50.220;8.782;2023-12-20T05:27:20;5.10;99.80
9519;DHT22;4797;50.220;8.782;2023-12-20T05:29:48;5.00;99.80
9519;DHT22;4797;50.220;8.782;2023-12-20T05:32:18;5.00;99.80
9519;DHT22;4797;50.220;8.782;2023-12-20T05:34:46;4.90;99.80
9519;DHT22;4797;50.220;8.782;2023-12-20T05:37:14;4.90;99.80
9519;DHT22;4797;50.220;8.782;2023-12-20T05:39:42;4.80;99.80
9519;DHT22;4797;50.220;8.782;2023-12-20T05:42:10;4.90;99.80
9519;DHT22;4797;50.220;8.782;2023-12-20T05:44:39;5.00;99.80
9519;DHT22;4797;50.220;8.782;2023-12-20T05:47:07;4.90;99.80
9519;DHT22;4797;50.220;8.782;2023-12-20T05:49:36;4.90;99.80
9519;DHT22;4797;50.220;8.782;2023-12-20T05:52:05;4.90;99.80
9519;DHT22;4797;50.220;8.782;2023-12-20T05:54:35;4.90;99.80
9519;DHT22;4797;50.220;8.782;2023-12-20T05:57:04;4.90;99.80
9519;DHT22;4797;50.220;8.782;2023-12-20T05:59:32;4.90;99.80
9519;DHT22;4797;50.220;8.782;2023-12-20T06:02:00;4.80;99.80
9519;DHT22;4797;50.220;8.782;2023-12-20T06:04:27;4.80;99.80
9519;DHT22;4797;50.220;8.782;2023-12-20T06:06:57;4.80;99.80
9519;DHT22;4797;50.220;8.782;2023-12-20T06:09:27;4.80;99.80
9519;DHT22;4797;50.220;8.782;2023-12-20T06:11:57;4.90;99.80
9519;DHT22;4797;50.220;8.782;2023-12-20T06:14:25;4.90;99.80
9519;DHT22;4797;50.220;8.782;2023-12-20T06:16:53;4.90;99.80
9519;DHT22;4797;50.220;8.782;2023-12-20T06:19:21;4.90;99.80
9519;DHT22;4797;50.220;8.782;2023-12-20T06:21:49;4.90;99.80
9519;DHT22;4797;50.220;8.782;2023-12-20T06:24:18;4.80;99.80
9519;DHT22;4797;50.220;8.782;2023-12-20T06:26:46;4.70;99.80
9519;DHT22;4797;50.220;8.782;2023-12-20T06:29:14;4.70;99.80
9519;DHT22;4797;50.220;8.782;2023-12-20T06:31:43;4.60;99.80
9519;DHT22;4797;50.220;8.782;2023-12-20T06:34:11;4.50;99.80
9519;DHT22;4797;50.220;8.782;2023-12-20T06:36:39;4.50;99.80
9519;DHT22;4797;50.220;8.782;2023-12-20T06:39:07;4.50;99.80
9519;DHT22;4797;50.220;8.782;2023-12-20T06:41:37;4.60;99.80
9519;DHT22;4797;50.220;8.782;2023-12-20T06:44:05;4.60;99.80
9519;DHT22;4797;50.220;8.782;2023-12-20T06:46:34;4.60;99.80
9519;DHT22;4797;50.220;8.782;2023-12-20T06:49:01;4.70;99.80
9519;DHT22;4797;50.220;8.782;2023-12-20T06:51:29;4.80;99.80
9519;DHT22;4797;50.220;8.782;2023-12-20T06:53:57;4.80;99.80
9519;DHT22;4797;50.220;8.782;2023-12-20T06:56:26;4.90;99.80
9519;DHT22;4797;50.220;8.782;2023-12-20T06:58:55;5.00;99.80
9519;DHT22;4797;50.220;8.782;2023-12-20T07:01:23;5.10;99.80
9519;DHT22;4797;50.220;8.782;2023-12-20T07:03:51;5.20;99.80
9519;DHT22;4797;50.220;8.782;2023-12-20T07:06:19;5.30;99.80
9519;DHT22;4797;50.220;8.782;2023-12-20T07:08:49;5.40;99.80
9519;DHT22;4797;50.220;8.782;2023-12-20T07:11:17;5.40;99.80
9519;DHT22;4797;50.220;8.782;2023-12-20T07:13:44;5.50;99.80
9519;DHT22;4797;50.220;8.782;2023-12-20T07:16:14;5.50;99.80
9519;DHT22;4797;50.220;8.782;2023-12-20T07:18:42;5.50;99.80
9519;DHT22;4797;50.220;8.782;2023-12-20T07:21:10;5.50;99.80
9519;DHT22;4797;50.220;8.782;2023-12-20T07:23:38;5.50;99.80
9519;DHT22;4797;50.220;8.782;2023-12-20T07:26:05;5.50;99.80
9519;DHT22;4797;50.220;8.782;2023-12-20T07:28:33;5.50;99.80
9519;DHT22;4797;50.220;8.782;2023-12-20T07:31:01;5.40;99.80
9519;DHT22;4797;50.220;8.782;2023-12-20T07:33:31;5.30;99.80
9519;DHT22;4797;50.220;8.782;2023-12-20T07:36:06;5.20;99.80
9519;DHT22;4797;50.220;8.782;2023-12-20T07:38:34;5.10;99.80
9519;DHT22;4797;50.220;8.782;2023-12-20T07:41:02;5.10;99.80
9519;DHT22;4797;50.220;8.782;2023-12-20T07:43:30;5.00;99.80
9519;DHT22;4797;50.220;8.782;2023-12-20T07:46:01;5.00;99.80
9519;DHT22;4797;50.220;8.782;2023-12-20T07:48:33;4.90;99.80
9519;DHT22;4797;50.220;8.782;2023-12-20T07:51:01;4.90;99.80
9519;DHT22;4797;50.220;8.782;2023-12-20T07:53:29;5.00;99.80
9519;DHT22;4797;50.220;8.782;2023-12-20T07:55:57;5.00;99.80
9519;DHT22;4797;50.220;8.782;2023-12-20T07:58:25;5.00;99.80
9519;DHT22;4797;50.220;8.782;2023-12-20T08:01:11;5.10;99.80
9519;DHT22;4797;50.220;8.782;2023-12-20T08:03:41;5.10;99.80
9519;DHT22;4797;50.220;8.782;2023-12-20T08:06:09;5.10;99.80
9519;DHT22;4797;50.220;8.782;2023-12-20T08:08:36;5.10;99.80
9519;DHT22;4797;50.220;8.782;2023-12-20T08:11:05;5.10;99.80
9519;DHT22;4797;50.220;8.782;2023-12-20T08:13:32;5.10;99.80
9519;DHT22;4797;50.220;8.782;2023-12-20T08:16:00;5.10;99.80
9519;DHT22;4797;50.220;8.782;2023-12-20T08:18:34;5.10;99.80
9519;DHT22;4797;50.220;8.782;2023-12-20T08:21:04;5.20;99.80
9519;DHT22;4797;50.220;8.782;2023-12-20T08:23:34;5.10;99.80
9519;DHT22;4797;50.220;8.782;2023-12-20T08:26:04;5.10;99.80
9519;DHT22;4797;50.220;8.782;2023-12-20T08:28:32;5.10;99.80
9519;DHT22;4797;50.220;8.782;2023-12-20T08:31:00;5.20;99.80
9519;DHT22;4797;50.220;8.782;2023-12-20T08:33:29;5.20;99.80
9519;DHT22;4797;50.220;8.782;2023-12-20T08:35:56;5.20;99.80
9519;DHT22;4797;50.220;8.782;2023-12-20T08:38:35;5.10;99.80
9519;DHT22;4797;50.220;8.782;2023-12-20T08:41:03;5.10;99.80
9519;DHT22;4797;50.220;8.782;2023-12-20T08:43:34;5.10;99.80
9519;DHT22;4797;50.220;8.782;2023-12-20T08:46:02;5.00;99.80
9519;DHT22;4797;50.220;8.782;2023-12-20T08:48:30;5.00;99.80
9519;DHT22;4797;50.220;8.782;2023-12-20T08:51:01;5.00;99.80
9519;DHT22;4797;50.220;8.782;2023-12-20T08:53:30;5.10;99.80
9519;DHT22;4797;50.220;8.782;2023-12-20T08:55:58;5.10;99.80
9519;DHT22;4797;50.220;8.782;2023-12-20T08:58:28;5.20;99.80
9519;DHT22;4797;50.220;8.782;2023-12-20T09:01:01;5.30;99.80
9519;DHT22;4797;50.220;8.782;2023-12-20T09:03:29;5.30;99.80
9519;DHT22;4797;50.220;8.782;2023-12-20T09:06:00;5.40;99.80
9519;DHT22;4797;50.220;8.782;2023-12-20T09:08:30;5.40;99.80
9519;DHT22;4797;50.220;8.782;2023-12-20T09:11:00;5.40;99.80
9519;DHT22;4797;50.220;8.782;2023-12-20T09:13:29;5.50;99.80
9519;DHT22;4797;50.220;8.782;2023-12-20T09:15:58;5.50;99.80
9519;DHT22;4797;50.220;8.782;2023-12-20T09:18:31;5.50;99.80
9519;DHT22;4797;50.220;8.782;2023-12-20T09:20:59;5.40;99.80
9519;DHT22;4797;50.220;8.782;2023-12-20T09:23:31;5.40;99.80
9519;DHT22;4797;50.220;8.782;2023-12-20T09:26:01;5.40;99.80
9519;DHT22;4797;50.220;8.782;2023-12-20T09:28:30;5.50;99.80
9519;DHT22;4797;50.220;8.782;2023-12-20T09:31:04;5.60;99.80
9519;DHT22;4797;50.220;8.782;2023-12-20T09:33:38;5.70;99.80
9519;DHT22;4797;50.220;8.782;2023-12-20T09:36:09;5.80;99.80
9519;DHT22;4797;50.220;8.782;2023-12-20T09:38:39;5.90;99.80
9519;DHT22;4797;50.220;8.782;2023-12-20T09:41:15;5.90;99.80
9519;DHT22;4797;50.220;8.782;2023-12-20T09:43:45;5.90;99.80
9519;DHT22;4797;50.220;8.782;2023-12-20T09:46:15;6.00;99.80
9519;DHT22;4797;50.220;8.782;2023-12-20T09:48:48;6.10;99.80
9519;DHT22;4797;50.220;8.782;2023-12-20T09:51:31;6.10;99.80
9519;DHT22;4797;50.220;8.782;2023-12-20T09:54:06;6.10;99.80
9519;DHT22;4797;50.220;8.782;2023-12-20T09:56:36;6.10;99.80
9519;DHT22;4797;50.220;8.782;2023-12-20T09:59:14;6.00;99.80
9519;DHT22;4797;50.220;8.782;2023-12-20T10:01:55;6.00;99.80
9519;DHT22;4797;50.220;8.782;2023-12-20T10:04:26;6.10;99.80
9519;DHT22;4797;50.220;8.782;2023-12-20T10:07:06;6.30;99.80
9519;DHT22;4797;50.220;8.782;2023-12-20T10:09:44;6.40;99.80
9519;DHT22;4797;50.220;8.782;2023-12-20T10:12:17;6.40;99.80
9519;DHT22;4797;50.220;8.782;2023-12-20T10:14:48;6.40;99.80
9519;DHT22;4797;50.220;8.782;2023-12-20T10:17:22;6.40;99.80
9519;DHT22;4797;50.220;8.782;2023-12-20T10:19:53;6.40;99.80
9519;DHT22;4797;50.220;8.782;2023-12-20T10:22:22;6.50;99.80
9519;DHT22;4797;50.220;8.782;2023-12-20T10:24:52;6.70;99.80
9519;DHT22;4797;50.220;8.782;2023-12-20T10:27:24;6.90;99.80
9519;DHT22;4797;50.220;8.782;2023-12-20T10:30:02;7.00;99.80
9519;DHT22;4797;50.220;8.782;2023-12-20T10:32:32;7.10;99.80
9519;DHT22;4797;50.220;8.782;2023-12-20T10:35:00;7.10;99.80
9519;DHT22;4797;50.220;8.782;2023-12-20T10:37:29;7.00;99.80
9519;DHT22;4797;50.220;8.782;2023-12-20T10:39:59;7.00;99.80
9519;DHT22;4797;50.220;8.782;2023-12-20T10:42:31;6.90;99.80
9519;DHT22;4797;50.220;8.782;2023-12-20T10:45:00;6.90;99.80
9519;DHT22;4797;50.220;8.782;2023-12-20T10:47:30;7.10;99.80
9519;DHT22;4797;50.220;8.782;2023-12-20T10:49:59;7.20;99.80
9519;DHT22;4797;50.220;8.782;2023-12-20T10:52:29;7.20;99.80
9519;DHT22;4797;50.220;8.782;2023-12-20T10:55:07;7.20;99.80
9519;DHT22;4797;50.220;8.782;2023-12-20T10:57:42;7.30;99.80
9519;DHT22;4797;50.220;8.782;2023-12-20T11:00:14;7.30;99.80
9519;DHT22;4797;50.220;8.782;2023-12-20T11:02:43;7.40;99.80
9519;DHT22;4797;50.220;8.782;2023-12-20T11:05:24;7.40;99.80
9519;DHT22;4797;50.220;8.782;2023-12-20T11:08:06;7.60;99.80
9519;DHT22;4797;50.220;8.782;2023-12-20T11:10:41;7.80;99.80
9519;DHT22;4797;50.220;8.782;2023-12-20T11:13:17;8.10;99.80
9519;DHT22;4797;50.220;8.782;2023-12-20T11:15:51;8.20;99.80
9519;DHT22;4797;50.220;8.782;2023-12-20T11:18:20;8.30;99.80
9519;DHT22;4797;50.220;8.782;2023-12-20T11:21:00;8.40;99.80
9519;DHT22;4797;50.220;8.782;2023-12-20T11:23:29;8.50;99.80
9519;DHT22;4797;50.220;8.782;2023-12-20T11:25:59;8.70;99.80
9519;DHT22;4797;50.220;8.782;2023-12-20T11:28:27;9.00;99.80
9519;DHT22;4797;50.220;8.782;2023-12-20T11:30:58;8.80;99.80
9519;DHT22;4797;50.220;8.782;2023-12-20T11:33:29;8.50;99.80
9519;DHT22;4797;50.220;8.782;2023-12-20T11:35:59;8.20;99.80
9519;DHT22;4797;50.220;8.782;2023-12-20T11:38:27;8.00;99.80
9519;DHT22;4797;50.220;8.782;2023-12-20T11:40:55;7.80;99.80
9519;DHT22;4797;50.220;8.782;2023-12-20T11:43:32;7.80;99.80
9519;DHT22;4797;50.220;8.782;2023-12-20T11:46:03;7.80;99.80
9519;DHT22;4797;50.220;8.782;2023-12-20T11:48:33;7.70;99.80
9519;DHT22;4797;50.220;8.782;2023-12-20T11:51:09;7.80;99.80
9519;DHT22;4797;50.220;8.782;2023-12-20T11:53:37;7.90;99.80
9519;DHT22;4797;50.220;8.782;2023-12-20T11:56:06;7.80;99.80
9519;DHT22;4797;50.220;8.782;2023-12-20T11:58:38;7.80;99.80
9519;DHT22;4797;50.220;8.782;2023-12-20T12:01:06;7.80;99.80
9519;DHT22;4797;50.220;8.782;2023-12-20T12:03:35;7.80;99.80
9519;DHT22;4797;50.220;8.782;2023-12-20T12:06:06;7.90;99.80
9519;DHT22;4797;50.220;8.782;2023-12-20T12:08:35;8.00;99.80
9519;DHT22;4797;50.220;8.782;2023-12-20T12:11:09;8.00;99.80
9519;DHT22;4797;50.220;8.782;2023-12-20T12:13:40;8.00;99.80
9519;DHT22;4797;50.220;8.782;2023-12-20T12:16:10;8.00;99.80
9519;DHT22;4797;50.220;8.782;2023-12-20T12:18:39;8.10;99.80
9519;DHT22;4797;50.220;8.782;2023-12-20T12:21:10;8.50;99.80
9519;DHT22;4797;50.220;8.782;2023-12-20T12:23:47;8.80;99.80
9519;DHT22;4797;50.220;8.782;2023-12-20T12:26:18;8.80;99.80
9519;DHT22;4797;50.220;8.782;2023-12-20T12:28:47;8.60;99.80
9519;DHT22;4797;50.220;8.782;2023-12-20T12:31:23;8.50;99.80
9519;DHT22;4797;50.220;8.782;2023-12-20T12:34:06;8.50;99.80
9519;DHT22;4797;50.220;8.782;2023-12-20T12:36:40;8.50;99.80
9519;DHT22;4797;50.220;8.782;2023-12-20T12:39:14;8.40;99.80
9519;DHT22;4797;50.220;8.782;2023-12-20T12:41:42;8.30;99.80
9519;DHT22;4797;50.220;8.782;2023-12-20T12:44:13;8.30;99.80
9519;DHT22;4797;50.220;8.782;2023-12-20T12:46:46;8.30;99.80
9519;DHT22;4797;50.220;8.782;2023-12-20T12:49:22;8.30;99.80
9519;DHT22;4797;50.220;8.782;2023-12-20T12:51:52;8.30;99.80
9519;DHT22;4797;50.220;8.782;2023-12-20T12:54:22;8.20;99.80
9519;DHT22;4797;50.220;8.782;2023-12-20T12:56:53;8.20;99.80
9519;DHT22;4797;50.220;8.782;2023-12-20T12:59:25;8.10;99.80
9519;DHT22;4797;50.220;8.782;2023-12-20T13:02:02;8.10;99.80
9519;DHT22;4797;50.220;8.782;2023-12-20T13:04:34;8.10;99.80
9519;DHT22;4797;50.220;8.782;2023-12-20T13:07:09;8.10;99.80
9519;DHT22;4797;50.220;8.782;2023-12-20T13:09:39;8.10;99.80
9519;DHT22;4797;50.220;8.782;2023-12-20T13:12:08;8.20;99.80
9519;DHT22;4797;50.220;8.782;2023-12-20T13:14:43;8.30;99.80
9519;DHT22;4797;50.220;8.782;2023-12-20T13:17:12;8.30;99.80
9519;DHT22;4797;50.220;8.782;2023-12-20T13:23:11;8.40;99.80
9519;DHT22;4797;50.220;8.782;2023-12-20T13:25:46;8.30;99.80
